Time;durP1;ratioP1;P1;durP2;ratioP2;P2;SDS_P1;SDS_P2;PMS_P1;PMS_P2;Temp;Humidity;BMP_temperature;BMP_pressure;BME280_temperature;BME280_humidity;BME280_pressure;Samples;Min_cycle;Max_cycle;Signal;HPM_P1;HPM_P2
2023/03/05 00:01:45;;;;;;;36.58;19.15;;;;;;;;;;5095793;28;20070;-67
2023/03/05 00:04:13;;;;;;;44.28;19.95;;;;;;;;;;5095753;28;20097;-67
2023/03/05 00:06:41;;;;;;;34.40;17.10;;;;;;;;;;5094229;28;20036;-67
2023/03/05 00:09:09;;;;;;;38.95;18.08;;;;;;;;;;5094435;28;20056;-67
2023/03/05 00:11:36;;;;;;;38.65;18.63;;;;;;;;;;5095557;28;20028;-67
2023/03/05 00:14:05;;;;;;;34.63;18.00;;;;;;;;;;5095453;28;20085;-67
2023/03/05 00:16:33;;;;;;;40.63;18.67;;;;;;;;;;5095551;28;20050;-67
2023/03/05 00:19:01;;;;;;;35.92;17.40;;;;;;;;;;5095410;28;20063;-67
2023/03/05 00:21:30;;;;;;;39.83;18.08;;;;;;;;;;5095307;28;20044;-67
2023/03/05 00:24:00;;;;;;;34.47;18.00;;;;;;;;;;5095440;28;20040;-67
2023/03/05 00:26:28;;;;;;;38.38;18.80;;;;;;;;;;5095399;28;20040;-67
2023/03/05 00:28:56;;;;;;;36.80;17.08;;;;;;;;;;5095133;28;20043;-67
2023/03/05 00:31:31;;;;;;;40.38;17.83;;;;;;;;;;5094076;28;20051;-67
2023/03/05 00:34:01;;;;;;;40.80;19.90;;;;;;;;;;5095097;28;20096;-67
2023/03/05 00:36:29;;;;;;;40.40;18.83;;;;;;;;;;5093795;28;20044;-67
2023/03/05 00:38:56;;;;;;;41.90;19.08;;;;;;;;;;5093843;28;20044;-67
2023/03/05 00:41:24;;;;;;;46.90;19.17;;;;;;;;;;5077009;28;20051;-67
2023/03/05 00:43:52;;;;;;;38.35;18.38;;;;;;;;;;5094985;28;20447;-67
2023/03/05 00:46:19;;;;;;;43.10;19.42;;;;;;;;;;5093497;28;20040;-67
2023/03/05 00:48:47;;;;;;;41.38;18.80;;;;;;;;;;5093469;28;20397;-67
2023/03/05 00:51:14;;;;;;;38.20;18.38;;;;;;;;;;5093255;28;20040;-67
2023/03/05 00:53:41;;;;;;;41.95;18.73;;;;;;;;;;5095368;28;20043;-67
2023/03/05 00:56:09;;;;;;;45.13;19.85;;;;;;;;;;5094604;28;20040;-67
2023/03/05 00:58:37;;;;;;;43.53;18.52;;;;;;;;;;5093329;28;20048;-67
2023/03/05 01:01:05;;;;;;;44.65;19.70;;;;;;;;;;5093288;28;20073;-67
2023/03/05 01:03:34;;;;;;;47.17;19.90;;;;;;;;;;5093450;28;20067;-67
2023/03/05 01:06:06;;;;;;;44.45;21.35;;;;;;;;;;5093355;28;20066;-67
2023/03/05 01:08:34;;;;;;;42.92;19.42;;;;;;;;;;5093073;28;20044;-67
2023/03/05 01:11:03;;;;;;;43.45;19.40;;;;;;;;;;5093057;28;20482;-67
2023/03/05 01:13:30;;;;;;;50.30;20.42;;;;;;;;;;5093180;28;20427;-67
2023/03/05 01:15:58;;;;;;;41.78;20.08;;;;;;;;;;5092967;28;20036;-67
2023/03/05 01:18:25;;;;;;;45.72;20.33;;;;;;;;;;5094225;28;20093;-67
2023/03/05 01:20:52;;;;;;;47.72;20.80;;;;;;;;;;5092874;28;20047;-67
2023/03/05 01:23:20;;;;;;;49.75;20.60;;;;;;;;;;5092808;28;20044;-67
2023/03/05 01:25:58;;;;;;;46.13;19.92;;;;;;;;;;5092877;28;20101;-67
2023/03/05 01:28:27;;;;;;;49.50;21.92;;;;;;;;;;5092598;28;20054;-67
2023/03/05 01:30:54;;;;;;;51.50;22.50;;;;;;;;;;5092720;28;20059;-67
2023/03/05 01:33:22;;;;;;;52.80;22.05;;;;;;;;;;5092662;28;20044;-67
2023/03/05 01:35:50;;;;;;;46.83;21.50;;;;;;;;;;5075962;28;20489;-66
2023/03/05 01:38:18;;;;;;;54.83;23.65;;;;;;;;;;5093820;28;20047;-66
2023/03/05 01:40:45;;;;;;;48.35;21.75;;;;;;;;;;5092217;28;20039;-66
2023/03/05 01:43:13;;;;;;;52.53;23.20;;;;;;;;;;5092429;28;20512;-66
2023/03/05 01:45:59;;;;;;;47.85;22.20;;;;;;;;;;5093661;28;20081;-66
2023/03/05 01:48:27;;;;;;;49.53;22.05;;;;;;;;;;5092384;28;20043;-66
2023/03/05 01:50:54;;;;;;;50.85;22.55;;;;;;;;;;5093682;28;20578;-66
2023/03/05 01:53:22;;;;;;;49.15;22.08;;;;;;;;;;5092372;28;20131;-66
2023/03/05 01:55:49;;;;;;;52.45;23.67;;;;;;;;;;5093918;28;20160;-67
2023/03/05 01:58:17;;;;;;;50.58;22.77;;;;;;;;;;5109286;28;20048;-66
2023/03/05 02:00:46;;;;;;;48.60;23.13;;;;;;;;;;5092520;28;20052;-68
2023/03/05 02:03:14;;;;;;;58.72;23.73;;;;;;;;;;5091448;28;20048;-67
2023/03/05 02:05:44;;;;;;;52.28;24.20;;;;;;;;;;5092121;28;20044;-67
2023/03/05 02:08:13;;;;;;;54.30;24.08;;;;;;;;;;5093274;28;20401;-67
2023/03/05 02:10:41;;;;;;;53.25;23.83;;;;;;;;;;5092327;28;20044;-67
2023/03/05 02:13:10;;;;;;;54.75;24.77;;;;;;;;;;5092010;28;20699;-67
2023/03/05 02:15:38;;;;;;;53.08;23.30;;;;;;;;;;5109003;28;20036;-68
2023/03/05 02:18:06;;;;;;;55.90;24.63;;;;;;;;;;5091861;28;20114;-67
2023/03/05 02:20:47;;;;;;;58.00;24.48;;;;;;;;;;5093416;28;20040;-67
2023/03/05 02:23:16;;;;;;;53.88;23.63;;;;;;;;;;5093266;28;20113;-68
2023/03/05 02:25:43;;;;;;;54.65;23.73;;;;;;;;;;5093101;28;20040;-67
2023/03/05 02:28:11;;;;;;;54.13;23.83;;;;;;;;;;5091681;28;20040;-67
2023/03/05 02:30:38;;;;;;;58.55;23.48;;;;;;;;;;5092997;28;20066;-67
2023/03/05 02:33:06;;;;;;;59.42;23.27;;;;;;;;;;5092770;28;20040;-67
2023/03/05 02:35:34;;;;;;;61.85;24.33;;;;;;;;;;5092839;28;20036;-67
2023/03/05 02:38:02;;;;;;;55.58;24.98;;;;;;;;;;5091631;28;20490;-67
2023/03/05 02:40:29;;;;;;;60.35;24.13;;;;;;;;;;5091533;28;20079;-67
2023/03/05 02:42:57;;;;;;;56.70;24.52;;;;;;;;;;5091601;28;20074;-67
2023/03/05 02:45:26;;;;;;;59.58;24.88;;;;;;;;;;5108377;28;20563;-67
2023/03/05 02:47:54;;;;;;;55.40;22.88;;;;;;;;;;5091448;28;20044;-67
2023/03/05 02:50:22;;;;;;;54.22;24.33;;;;;;;;;;5108651;28;20101;-67
2023/03/05 02:52:49;;;;;;;62.75;25.40;;;;;;;;;;5091437;28;20043;-67
2023/03/05 02:55:17;;;;;;;53.67;23.75;;;;;;;;;;5108279;28;20429;-67
2023/03/05 02:57:45;;;;;;;58.95;24.58;;;;;;;;;;5092502;28;20456;-67
2023/03/05 03:00:13;;;;;;;59.10;23.88;;;;;;;;;;5091338;28;20047;-67
2023/03/05 03:02:40;;;;;;;53.33;22.63;;;;;;;;;;5108297;28;20071;-67
2023/03/05 03:05:08;;;;;;;55.10;23.92;;;;;;;;;;5092474;28;20085;-67
2023/03/05 03:07:35;;;;;;;52.95;23.52;;;;;;;;;;5092768;28;20044;-67
2023/03/05 03:10:04;;;;;;;55.60;21.92;;;;;;;;;;5092796;28;20047;-67
2023/03/05 03:12:31;;;;;;;50.30;23.65;;;;;;;;;;5092544;28;20047;-67
2023/03/05 03:15:00;;;;;;;58.28;22.65;;;;;;;;;;5094609;28;20114;-67
2023/03/05 03:17:28;;;;;;;57.22;24.05;;;;;;;;;;5096491;28;20123;-67
2023/03/05 03:19:55;;;;;;;54.88;24.58;;;;;;;;;;5096691;28;20040;-67
2023/03/05 03:22:23;;;;;;;57.97;25.20;;;;;;;;;;5096408;28;20656;-67
2023/03/05 03:24:50;;;;;;;55.85;24.27;;;;;;;;;;5096416;28;20072;-67
2023/03/05 03:27:18;;;;;;;58.40;25.33;;;;;;;;;;5096325;28;20119;-67
2023/03/05 03:29:45;;;;;;;52.88;22.58;;;;;;;;;;5096344;28;20044;-67
2023/03/05 03:32:12;;;;;;;60.00;24.42;;;;;;;;;;5096264;28;20044;-67
2023/03/05 03:34:40;;;;;;;58.10;25.05;;;;;;;;;;5096512;28;20070;-67
2023/03/05 03:37:11;;;;;;;55.58;22.38;;;;;;;;;;5096298;28;20494;-67
2023/03/05 03:39:38;;;;;;;54.67;24.42;;;;;;;;;;5096259;28;20043;-67
2023/03/05 03:42:06;;;;;;;63.45;24.77;;;;;;;;;;5095993;28;20040;-67
2023/03/05 03:44:33;;;;;;;58.53;24.45;;;;;;;;;;5096100;28;20071;-67
2023/03/05 03:47:01;;;;;;;60.05;23.52;;;;;;;;;;5096177;28;20040;-67
2023/03/05 03:49:28;;;;;;;56.88;23.65;;;;;;;;;;5095900;28;20049;-67
2023/03/05 03:51:57;;;;;;;49.00;21.88;;;;;;;;;;5096263;28;20397;-67
2023/03/05 03:54:24;;;;;;;62.40;23.60;;;;;;;;;;5095782;28;20048;-67
2023/03/05 03:56:52;;;;;;;62.70;25.40;;;;;;;;;;5095576;28;20501;-67
2023/03/05 03:59:19;;;;;;;57.17;23.70;;;;;;;;;;5095767;28;20046;-67
2023/03/05 04:01:47;;;;;;;63.25;25.20;;;;;;;;;;5095750;28;20107;-67
2023/03/05 04:04:15;;;;;;;57.78;25.13;;;;;;;;;;5095666;28;20045;-67
2023/03/05 04:06:42;;;;;;;61.85;25.02;;;;;;;;;;5095496;28;20517;-67
2023/03/05 04:09:10;;;;;;;57.85;23.52;;;;;;;;;;5095528;28;20048;-67
2023/03/05 04:11:37;;;;;;;58.40;24.42;;;;;;;;;;5095570;28;20042;-67
2023/03/05 04:14:05;;;;;;;56.60;24.40;;;;;;;;;;5095547;28;20044;-67
2023/03/05 04:16:32;;;;;;;59.50;24.17;;;;;;;;;;5095339;28;20486;-67
2023/03/05 04:19:00;;;;;;;56.05;23.85;;;;;;;;;;5095320;28;20063;-67
2023/03/05 04:21:28;;;;;;;62.40;24.75;;;;;;;;;;5095493;28;20064;-67
2023/03/05 04:23:55;;;;;;;59.35;23.75;;;;;;;;;;5095343;28;20059;-67
2023/03/05 04:26:23;;;;;;;59.38;24.73;;;;;;;;;;5094484;28;20044;-67
2023/03/05 04:28:50;;;;;;;65.65;24.98;;;;;;;;;;5095105;28;20062;-67
2023/03/05 04:31:19;;;;;;;62.47;25.30;;;;;;;;;;5095153;28;20040;-67
2023/03/05 04:33:46;;;;;;;54.85;24.13;;;;;;;;;;5095260;28;20114;-67
2023/03/05 04:36:14;;;;;;;55.35;23.63;;;;;;;;;;5095128;28;20382;-67
2023/03/05 04:38:41;;;;;;;55.13;24.38;;;;;;;;;;5094874;28;20048;-67
2023/03/05 04:41:09;;;;;;;58.67;24.02;;;;;;;;;;5093840;28;20406;-67
2023/03/05 04:43:36;;;;;;;58.13;24.25;;;;;;;;;;5093855;28;20044;-67
2023/03/05 04:46:04;;;;;;;61.45;25.40;;;;;;;;;;5095045;28;20041;-67
2023/03/05 04:48:31;;;;;;;59.65;24.38;;;;;;;;;;5094699;28;20044;-67
2023/03/05 04:50:59;;;;;;;63.90;24.85;;;;;;;;;;5094893;28;20044;-67
2023/03/05 04:53:26;;;;;;;60.28;24.13;;;;;;;;;;5095040;28;20452;-67
2023/03/05 04:55:54;;;;;;;64.53;25.38;;;;;;;;;;5094993;28;20032;-67
2023/03/05 04:58:22;;;;;;;59.20;25.33;;;;;;;;;;5110207;28;20075;-67
2023/03/05 05:00:49;;;;;;;62.30;25.95;;;;;;;;;;5093298;28;20071;-67
2023/03/05 05:03:16;;;;;;;63.97;25.52;;;;;;;;;;5094510;28;20097;-67
2023/03/05 05:05:44;;;;;;;62.38;25.90;;;;;;;;;;5094794;28;20047;-67
2023/03/05 05:08:11;;;;;;;51.83;22.65;;;;;;;;;;5094178;28;20066;-67
2023/03/05 05:10:40;;;;;;;57.70;23.90;;;;;;;;;;5094355;28;20043;-67
2023/03/05 05:13:07;;;;;;;58.75;24.58;;;;;;;;;;5094911;28;20593;-67
2023/03/05 05:15:35;;;;;;;62.08;24.73;;;;;;;;;;5094294;28;20048;-67
2023/03/05 05:18:02;;;;;;;53.65;24.73;;;;;;;;;;5094115;28;20127;-67
2023/03/05 05:20:29;;;;;;;62.67;24.65;;;;;;;;;;5094083;28;20043;-67
2023/03/05 05:22:57;;;;;;;57.63;24.75;;;;;;;;;;5094160;28;20044;-67
2023/03/05 05:25:24;;;;;;;59.70;26.58;;;;;;;;;;5094153;28;20528;-67
2023/03/05 05:27:52;;;;;;;104.03;37.42;;;;;;;;;;5093889;28;20065;-67
2023/03/05 05:30:19;;;;;;;93.30;36.00;;;;;;;;;;5109749;28;20044;-67
2023/03/05 05:32:46;;;;;;;65.72;29.60;;;;;;;;;;5094280;28;20115;-67
2023/03/05 05:35:14;;;;;;;54.30;28.02;;;;;;;;;;5093954;28;20104;-67
2023/03/05 05:37:41;;;;;;;52.67;24.88;;;;;;;;;;5092835;28;20044;-67
2023/03/05 05:40:09;;;;;;;53.50;24.55;;;;;;;;;;5093544;28;20085;-67
2023/03/05 05:42:37;;;;;;;50.05;24.55;;;;;;;;;;5091775;28;20057;-68
2023/03/05 05:45:04;;;;;;;47.78;24.80;;;;;;;;;;5093564;28;20105;-67
2023/03/05 05:47:32;;;;;;;47.75;23.67;;;;;;;;;;5092390;28;20048;-67
2023/03/05 05:49:59;;;;;;;39.67;22.02;;;;;;;;;;5093413;28;20079;-67
2023/03/05 05:52:27;;;;;;;37.63;21.67;;;;;;;;;;5092857;28;20036;-67
2023/03/05 05:54:54;;;;;;;37.10;23.40;;;;;;;;;;5093172;28;20484;-67
2023/03/05 05:57:22;;;;;;;35.75;22.77;;;;;;;;;;5093324;28;20066;-66
2023/03/05 05:59:49;;;;;;;40.55;24.02;;;;;;;;;;5092849;28;20126;-66
2023/03/05 06:02:17;;;;;;;40.17;23.70;;;;;;;;;;5092400;28;20047;-67
2023/03/05 06:04:44;;;;;;;38.40;23.98;;;;;;;;;;5092611;28;20127;-67
2023/03/05 06:07:12;;;;;;;37.38;22.90;;;;;;;;;;5091686;28;20089;-67
2023/03/05 06:09:39;;;;;;;34.88;22.55;;;;;;;;;;5092869;28;20048;-67
2023/03/05 06:12:07;;;;;;;37.67;23.08;;;;;;;;;;5092993;28;20040;-67
2023/03/05 06:14:34;;;;;;;33.00;22.77;;;;;;;;;;5093190;28;20097;-67
2023/03/05 06:17:02;;;;;;;35.90;22.73;;;;;;;;;;5093182;28;20068;-67
2023/03/05 06:19:29;;;;;;;34.20;22.02;;;;;;;;;;5093225;28;20047;-67
2023/03/05 06:21:57;;;;;;;33.78;22.25;;;;;;;;;;5092944;28;20439;-67
2023/03/05 06:24:24;;;;;;;33.72;22.48;;;;;;;;;;5092706;28;20520;-68
2023/03/05 06:26:51;;;;;;;36.45;22.15;;;;;;;;;;5092980;28;20048;-69
2023/03/05 06:29:19;;;;;;;34.10;22.80;;;;;;;;;;5092867;28;20101;-69
2023/03/05 06:31:46;;;;;;;34.47;21.88;;;;;;;;;;5093061;28;20063;-69
2023/03/05 06:34:14;;;;;;;37.60;23.65;;;;;;;;;;5093197;28;20453;-69
2023/03/05 06:36:42;;;;;;;35.30;22.95;;;;;;;;;;5092111;28;20036;-67
2023/03/05 06:39:09;;;;;;;33.03;22.38;;;;;;;;;;5092372;28;20123;-67
2023/03/05 06:41:37;;;;;;;37.58;23.45;;;;;;;;;;5092576;28;20044;-68
2023/03/05 06:44:05;;;;;;;33.13;23.08;;;;;;;;;;5092737;28;20051;-69
2023/03/05 06:46:33;;;;;;;34.85;23.25;;;;;;;;;;5091455;28;20430;-68
2023/03/05 06:49:01;;;;;;;32.35;22.90;;;;;;;;;;5091680;28;20051;-68
2023/03/05 06:51:30;;;;;;;32.13;22.02;;;;;;;;;;5091359;28;20087;-68
2023/03/05 06:54:02;;;;;;;29.92;22.75;;;;;;;;;;5092557;28;20494;-68
2023/03/05 06:56:29;;;;;;;31.50;22.58;;;;;;;;;;5092558;28;20036;-68
2023/03/05 06:58:57;;;;;;;32.17;22.80;;;;;;;;;;5092563;28;20040;-68
2023/03/05 07:01:24;;;;;;;29.63;22.38;;;;;;;;;;5092609;28;20497;-67
2023/03/05 07:03:53;;;;;;;31.30;22.45;;;;;;;;;;5092534;28;20048;-67
2023/03/05 07:06:21;;;;;;;35.30;23.33;;;;;;;;;;5092630;28;20036;-66
2023/03/05 07:08:49;;;;;;;32.17;23.17;;;;;;;;;;5092502;28;20032;-67
2023/03/05 07:11:17;;;;;;;31.55;23.67;;;;;;;;;;5092705;28;20040;-67
2023/03/05 07:13:48;;;;;;;31.67;24.02;;;;;;;;;;5092606;28;20082;-67
2023/03/05 07:16:17;;;;;;;32.13;24.40;;;;;;;;;;5092729;28;20375;-67
2023/03/05 07:18:45;;;;;;;33.65;25.35;;;;;;;;;;5092953;28;20036;-67
2023/03/05 07:21:17;;;;;;;30.42;23.20;;;;;;;;;;5092784;28;20442;-68
2023/03/05 07:23:45;;;;;;;31.70;24.05;;;;;;;;;;5092569;28;20044;-68
2023/03/05 07:26:12;;;;;;;35.88;23.58;;;;;;;;;;5092513;28;20071;-68
2023/03/05 07:28:40;;;;;;;37.20;24.75;;;;;;;;;;5091540;28;20040;-68
2023/03/05 07:31:09;;;;;;;37.60;25.80;;;;;;;;;;5091891;28;20089;-67
2023/03/05 07:33:36;;;;;;;36.38;24.13;;;;;;;;;;5092313;28;20047;-67
2023/03/05 07:36:04;;;;;;;38.83;25.10;;;;;;;;;;5092307;28;20072;-67
2023/03/05 07:38:32;;;;;;;43.42;24.63;;;;;;;;;;5092509;28;20040;-66
2023/03/05 07:41:03;;;;;;;39.08;23.83;;;;;;;;;;5092422;28;20094;-66
2023/03/05 07:43:31;;;;;;;40.20;24.10;;;;;;;;;;5091038;28;20047;-67
2023/03/05 07:45:58;;;;;;;40.25;22.35;;;;;;;;;;5092327;28;20473;-66
2023/03/05 07:48:25;;;;;;;44.55;24.05;;;;;;;;;;5092306;28;20036;-68
2023/03/05 07:51:00;;;;;;;41.33;23.60;;;;;;;;;;5092230;28;20073;-66
2023/03/05 07:53:28;;;;;;;42.58;24.17;;;;;;;;;;5092394;28;20445;-67
2023/03/05 07:55:55;;;;;;;44.72;23.17;;;;;;;;;;5092040;28;20044;-67
2023/03/05 07:58:22;;;;;;;41.03;23.63;;;;;;;;;;5092127;28;20056;-67
2023/03/05 08:00:50;;;;;;;46.90;24.45;;;;;;;;;;5092117;28;20036;-67
2023/03/05 08:03:17;;;;;;;43.38;24.00;;;;;;;;;;5094076;28;20429;-67
2023/03/05 08:05:45;;;;;;;43.08;24.52;;;;;;;;;;5085370;28;20032;-66
2023/03/05 08:08:13;;;;;;;43.03;23.58;;;;;;;;;;5082850;28;20041;-67
2023/03/05 08:10:40;;;;;;;41.80;23.50;;;;;;;;;;5083305;28;20072;-66
2023/03/05 08:13:07;;;;;;;46.13;24.48;;;;;;;;;;5094397;28;20032;-67
2023/03/05 08:15:36;;;;;;;45.70;25.40;;;;;;;;;;5094689;28;20091;-66
2023/03/05 08:18:04;;;;;;;40.75;23.33;;;;;;;;;;5095271;28;20032;-66
2023/03/05 08:20:34;;;;;;;49.28;24.90;;;;;;;;;;5095207;28;20115;-67
2023/03/05 08:23:02;;;;;;;44.92;24.73;;;;;;;;;;5095381;28;20028;-66
2023/03/05 08:25:30;;;;;;;44.97;24.60;;;;;;;;;;5093672;28;20033;-67
2023/03/05 08:27:57;;;;;;;46.40;25.02;;;;;;;;;;5094240;28;20698;-67
2023/03/05 08:30:26;;;;;;;43.70;24.20;;;;;;;;;;5095133;28;20040;-67
2023/03/05 08:32:54;;;;;;;47.08;25.27;;;;;;;;;;5094785;28;20047;-66
2023/03/05 08:35:22;;;;;;;48.85;25.88;;;;;;;;;;5094863;28;20048;-66
2023/03/05 08:37:49;;;;;;;48.47;24.67;;;;;;;;;;5094754;28;20112;-66
2023/03/05 08:40:17;;;;;;;48.80;26.23;;;;;;;;;;5094710;28;20048;-66
2023/03/05 08:42:45;;;;;;;41.83;24.23;;;;;;;;;;5095038;28;20050;-66
2023/03/05 08:45:13;;;;;;;47.08;25.75;;;;;;;;;;5094819;28;20075;-66
2023/03/05 08:47:40;;;;;;;40.65;23.63;;;;;;;;;;5093292;28;20044;-66
2023/03/05 08:50:08;;;;;;;45.45;25.67;;;;;;;;;;5094599;28;20398;-66
2023/03/05 08:52:35;;;;;;;46.92;25.48;;;;;;;;;;5094448;28;20024;-66
2023/03/05 08:55:03;;;;;;;49.28;24.90;;;;;;;;;;5094214;28;20520;-68
2023/03/05 08:57:30;;;;;;;43.63;24.63;;;;;;;;;;5093644;28;20051;-66
2023/03/05 08:59:58;;;;;;;40.30;23.63;;;;;;;;;;5094501;28;20378;-67
2023/03/05 09:02:26;;;;;;;41.13;25.83;;;;;;;;;;5094682;28;20036;-66
2023/03/05 09:04:53;;;;;;;43.38;25.60;;;;;;;;;;5094283;28;20493;-65
2023/03/05 09:07:21;;;;;;;44.53;26.52;;;;;;;;;;5094220;28;20031;-66
2023/03/05 09:09:48;;;;;;;43.00;24.92;;;;;;;;;;5094554;28;20473;-66
2023/03/05 09:12:16;;;;;;;47.47;26.13;;;;;;;;;;5092755;28;20093;-66
2023/03/05 09:14:43;;;;;;;53.60;32.65;;;;;;;;;;5094066;28;20052;-65
2023/03/05 09:17:10;;;;;;;45.20;28.67;;;;;;;;;;5094228;28;20089;-65
2023/03/05 09:19:38;;;;;;;44.88;26.05;;;;;;;;;;5093926;28;20063;-65
2023/03/05 09:22:05;;;;;;;47.20;26.15;;;;;;;;;;5093461;28;20044;-66
2023/03/05 09:24:33;;;;;;;46.35;26.88;;;;;;;;;;5093212;28;20060;-66
2023/03/05 09:27:00;;;;;;;43.83;27.42;;;;;;;;;;5091911;28;20040;-66
2023/03/05 09:29:30;;;;;;;47.35;29.15;;;;;;;;;;5093629;28;20040;-66
2023/03/05 09:31:57;;;;;;;46.55;27.95;;;;;;;;;;5093796;28;20028;-66
2023/03/05 09:34:25;;;;;;;46.92;28.63;;;;;;;;;;5092268;28;20504;-66
2023/03/05 09:36:52;;;;;;;47.63;28.05;;;;;;;;;;5093598;28;20036;-66
2023/03/05 09:39:20;;;;;;;45.55;29.83;;;;;;;;;;5093624;28;20042;-66
2023/03/05 09:41:53;;;;;;;48.40;29.52;;;;;;;;;;5093432;28;20048;-66
2023/03/05 09:44:30;;;;;;;43.42;28.88;;;;;;;;;;5093460;28;20058;-67
2023/03/05 09:47:16;;;;;;;45.50;28.63;;;;;;;;;;5093662;28;20044;-66
2023/03/05 09:49:56;;;;;;;47.42;29.40;;;;;;;;;;5093010;28;20075;-66
2023/03/05 09:52:28;;;;;;;53.08;29.77;;;;;;;;;;5093318;28;20482;-66
2023/03/05 09:54:56;;;;;;;49.50;28.98;;;;;;;;;;5093230;28;20039;-66
2023/03/05 09:57:28;;;;;;;47.05;28.58;;;;;;;;;;5093263;28;20554;-66
2023/03/05 09:59:59;;;;;;;52.08;32.88;;;;;;;;;;5093260;28;20036;-66
2023/03/05 10:02:32;;;;;;;53.90;33.97;;;;;;;;;;5091960;28;20043;-66
2023/03/05 10:05:03;;;;;;;47.08;31.02;;;;;;;;;;5093304;28;20028;-66
2023/03/05 10:07:33;;;;;;;50.97;31.90;;;;;;;;;;5091497;28;20036;-66
2023/03/05 10:10:02;;;;;;;47.95;29.95;;;;;;;;;;5093115;28;20514;-66
2023/03/05 10:12:52;;;;;;;54.97;31.67;;;;;;;;;;5092843;28;20052;-66
2023/03/05 10:15:34;;;;;;;55.83;35.47;;;;;;;;;;5087695;28;20059;-66
2023/03/05 10:18:21;;;;;;;50.90;34.05;;;;;;;;;;5092851;28;20089;-66
2023/03/05 10:20:53;;;;;;;55.13;35.10;;;;;;;;;;5092974;28;20036;-66
2023/03/05 10:23:28;;;;;;;55.78;35.92;;;;;;;;;;5092643;28;20119;-66
2023/03/05 10:26:14;;;;;;;48.20;29.63;;;;;;;;;;5092272;28;20047;-66
2023/03/05 10:28:50;;;;;;;47.35;30.48;;;;;;;;;;5092689;28;20116;-69
2023/03/05 10:31:24;;;;;;;47.65;31.63;;;;;;;;;;5092685;28;20044;-69
2023/03/05 10:33:54;;;;;;;48.78;29.02;;;;;;;;;;5083772;28;20038;-69
2023/03/05 10:36:44;;;;;;;49.00;29.60;;;;;;;;;;5092222;28;20505;-69
2023/03/05 10:39:18;;;;;;;54.00;32.92;;;;;;;;;;5092258;28;20033;-69
2023/03/05 10:41:52;;;;;;;48.03;28.83;;;;;;;;;;5092413;28;20040;-70
2023/03/05 10:44:39;;;;;;;42.85;27.77;;;;;;;;;;5092599;28;20035;-70
2023/03/05 10:47:22;;;;;;;47.20;29.55;;;;;;;;;;5082367;28;20055;-69
2023/03/05 10:49:51;;;;;;;41.60;26.25;;;;;;;;;;5091674;28;20032;-69
2023/03/05 10:52:50;;;;;;;41.03;26.27;;;;;;;;;;5092323;28;20509;-69
2023/03/05 10:55:19;;;;;;;41.92;26.10;;;;;;;;;;5083298;28;20128;-71
2023/03/05 10:57:47;;;;;;;43.88;27.85;;;;;;;;;;5092205;28;20135;-70
2023/03/05 11:00:15;;;;;;;44.08;26.70;;;;;;;;;;5092195;28;20040;-69
2023/03/05 11:02:53;;;;;;;47.20;27.85;;;;;;;;;;5092201;28;20044;-71
2023/03/05 11:05:40;;;;;;;41.92;25.80;;;;;;;;;;5079078;28;20464;-71
2023/03/05 11:08:33;;;;;;;39.85;24.63;;;;;;;;;;5092677;28;20028;-71
2023/03/05 11:11:03;;;;;;;40.90;26.55;;;;;;;;;;5088607;28;20048;-70
2023/03/05 11:13:32;;;;;;;42.53;25.45;;;;;;;;;;5091250;28;20044;-71
2023/03/05 11:16:01;;;;;;;43.42;26.30;;;;;;;;;;5092259;28;20041;-70
2023/03/05 11:18:36;;;;;;;39.10;25.30;;;;;;;;;;5107674;28;20032;-69
2023/03/05 11:21:09;;;;;;;36.88;22.90;;;;;;;;;;5092022;28;20048;-70
2023/03/05 11:23:37;;;;;;;38.38;23.40;;;;;;;;;;5092084;28;20081;-70
2023/03/05 11:26:07;;;;;;;39.45;24.67;;;;;;;;;;5091919;28;20097;-71
2023/03/05 11:28:37;;;;;;;30.55;20.75;;;;;;;;;;5092029;28;20394;-71
2023/03/05 11:31:20;;;;;;;34.65;22.77;;;;;;;;;;5091218;28;20144;-69
2023/03/05 11:34:08;;;;;;;39.75;23.65;;;;;;;;;;5092079;28;20106;-70
2023/03/05 11:36:36;;;;;;;42.65;25.40;;;;;;;;;;5090840;28;20494;-70
2023/03/05 11:39:06;;;;;;;38.47;24.50;;;;;;;;;;5096028;28;20067;-69
2023/03/05 11:41:47;;;;;;;40.38;25.50;;;;;;;;;;5095889;28;20036;-69
2023/03/05 11:44:17;;;;;;;36.88;24.33;;;;;;;;;;5095979;28;20488;-69
2023/03/05 11:46:46;;;;;;;38.15;23.92;;;;;;;;;;5095625;28;20070;-68
2023/03/05 11:49:17;;;;;;;37.80;24.35;;;;;;;;;;5092498;28;20468;-69
2023/03/05 11:51:50;;;;;;;38.38;24.83;;;;;;;;;;5085310;28;20036;-69
2023/03/05 11:54:22;;;;;;;39.25;27.02;;;;;;;;;;5094460;28;20040;-68
2023/03/05 11:56:51;;;;;;;38.85;25.50;;;;;;;;;;5093962;28;20129;-69
2023/03/05 11:59:23;;;;;;;42.78;25.58;;;;;;;;;;5082477;28;20063;-70
2023/03/05 12:01:55;;;;;;;40.72;25.77;;;;;;;;;;5094335;28;20507;-70
2023/03/05 12:04:25;;;;;;;35.38;24.00;;;;;;;;;;5078755;28;20040;-68
2023/03/05 12:06:56;;;;;;;34.80;23.65;;;;;;;;;;5094405;28;20074;-69
2023/03/05 12:09:36;;;;;;;39.03;24.30;;;;;;;;;;5091961;28;20422;-70
2023/03/05 12:12:23;;;;;;;40.33;24.67;;;;;;;;;;5091520;28;20482;-69
2023/03/05 12:14:53;;;;;;;37.67;23.70;;;;;;;;;;5095070;28;20551;-69
2023/03/05 12:17:25;;;;;;;39.75;23.70;;;;;;;;;;5099957;28;20506;-68
2023/03/05 12:20:03;;;;;;;39.65;24.60;;;;;;;;;;5093237;28;20032;-69
2023/03/05 12:22:33;;;;;;;41.70;24.35;;;;;;;;;;5093925;28;20119;-68
2023/03/05 12:25:19;;;;;;;36.88;24.40;;;;;;;;;;5091178;28;20036;-68
2023/03/05 12:27:47;;;;;;;45.22;27.77;;;;;;;;;;5094763;28;20043;-68
2023/03/05 12:30:49;;;;;;;39.95;25.42;;;;;;;;;;5094924;28;20135;-68
2023/03/05 12:33:35;;;;;;;36.72;24.30;;;;;;;;;;5094693;28;20036;-68
2023/03/05 12:36:21;;;;;;;41.55;26.08;;;;;;;;;;5094857;28;20393;-68
2023/03/05 12:38:52;;;;;;;35.22;24.23;;;;;;;;;;5094600;28;20520;-68
2023/03/05 12:41:22;;;;;;;37.95;25.23;;;;;;;;;;5069970;28;20549;-67
2023/03/05 12:44:04;;;;;;;39.00;26.60;;;;;;;;;;5093496;28;20051;-67
2023/03/05 12:46:35;;;;;;;37.30;24.65;;;;;;;;;;5086788;28;20044;-67
2023/03/05 12:49:17;;;;;;;37.95;25.20;;;;;;;;;;5089714;28;20040;-66
2023/03/05 12:51:52;;;;;;;37.50;24.55;;;;;;;;;;5093487;28;20047;-67
2023/03/05 12:54:32;;;;;;;39.20;25.38;;;;;;;;;;5094095;28;20028;-67
2023/03/05 12:57:05;;;;;;;39.95;25.50;;;;;;;;;;5083619;28;20055;-66
2023/03/05 12:59:40;;;;;;;38.83;25.52;;;;;;;;;;5093725;28;20401;-66
2023/03/05 13:02:33;;;;;;;40.05;25.23;;;;;;;;;;5093569;28;20469;-66
2023/03/05 13:05:04;;;;;;;38.22;26.13;;;;;;;;;;5080730;28;20082;-65
2023/03/05 13:07:32;;;;;;;36.45;25.02;;;;;;;;;;5093410;28;20389;-65
2023/03/05 13:09:59;;;;;;;41.15;25.52;;;;;;;;;;5093510;28;20036;-67
2023/03/05 13:12:28;;;;;;;40.42;25.23;;;;;;;;;;5093082;28;20100;-67
2023/03/05 13:15:03;;;;;;;37.03;25.00;;;;;;;;;;5092201;28;20032;-66
2023/03/05 13:17:31;;;;;;;;;;;;;;;;;;5093125;28;20093;-66
2023/03/05 13:19:59;;;;;;;36.88;25.70;;;;;;;;;;5093825;28;19969;-66
2023/03/05 13:22:27;;;;;;;39.47;24.65;;;;;;;;;;5107977;28;20040;-68
2023/03/05 13:25:10;;;;;;;39.00;25.08;;;;;;;;;;5093487;28;20040;-66
2023/03/05 13:27:37;;;;;;;35.53;24.08;;;;;;;;;;5075262;28;20115;-66
2023/03/05 13:30:05;;;;;;;35.90;24.20;;;;;;;;;;5091130;28;20066;-66
2023/03/05 13:32:33;;;;;;;35.97;25.63;;;;;;;;;;5088396;28;20127;-66
2023/03/05 13:35:01;;;;;;;38.83;26.08;;;;;;;;;;5083818;28;20040;-66
2023/03/05 13:37:32;;;;;;;40.67;25.48;;;;;;;;;;5079637;28;20045;-66
2023/03/05 13:40:06;;;;;;;39.42;25.75;;;;;;;;;;5073577;28;20528;-66
2023/03/05 13:42:35;;;;;;;35.05;25.38;;;;;;;;;;5077584;28;20127;-66
2023/03/05 13:45:19;;;;;;;38.58;25.75;;;;;;;;;;5066848;28;20044;-66
2023/03/05 13:47:59;;;;;;;38.85;25.05;;;;;;;;;;5075185;28;20032;-67
2023/03/05 13:50:31;;;;;;;39.83;26.80;;;;;;;;;;5080321;28;20036;-66
2023/03/05 13:53:18;;;;;;;40.20;26.10;;;;;;;;;;5081426;28;20482;-66
2023/03/05 13:55:46;;;;;;;38.85;26.25;;;;;;;;;;5091646;28;20032;-66
2023/03/05 13:58:40;;;;;;;43.00;26.33;;;;;;;;;;5081939;28;20607;-66
2023/03/05 14:01:26;;;;;;;43.20;25.90;;;;;;;;;;5081061;28;20052;-66
2023/03/05 14:04:18;;;;;;;39.38;26.42;;;;;;;;;;5087597;28;20389;-66
2023/03/05 14:06:55;;;;;;;39.72;26.65;;;;;;;;;;5087333;28;20051;-66
2023/03/05 14:09:27;;;;;;;41.13;27.15;;;;;;;;;;5087923;28;20067;-67
2023/03/05 14:12:05;;;;;;;39.90;27.15;;;;;;;;;;5092433;28;20036;-67
2023/03/05 14:14:36;;;;;;;40.53;27.50;;;;;;;;;;5089622;28;20032;-67
2023/03/05 14:17:23;;;;;;;38.88;26.92;;;;;;;;;;5092801;28;20078;-66
2023/03/05 14:19:51;;;;;;;41.80;26.67;;;;;;;;;;5090869;28;20503;-68
2023/03/05 14:22:35;;;;;;;39.60;26.38;;;;;;;;;;5088958;28;20052;-68
2023/03/05 14:25:03;;;;;;;41.85;25.98;;;;;;;;;;5079830;28;20036;-67
2023/03/05 14:27:33;;;;;;;42.95;27.83;;;;;;;;;;5093107;28;20481;-67
2023/03/05 14:30:00;;;;;;;42.60;28.08;;;;;;;;;;5092083;28;20036;-67
2023/03/05 14:32:30;;;;;;;41.63;27.35;;;;;;;;;;5092459;28;20047;-68
2023/03/05 14:34:59;;;;;;;38.90;26.42;;;;;;;;;;5088501;28;20050;-66